createdAt,value
2023-05-18T00:00:35.524Z,12.80
2023-05-18T00:03:20.022Z,12.60
2023-05-18T00:05:49.591Z,10.80
2023-05-18T00:08:17.697Z,9.60
2023-05-18T00:10:45.984Z,11.40
2023-05-18T00:13:14.069Z,14.00
2023-05-18T00:15:44.160Z,14.30
2023-05-18T00:18:12.317Z,8.50
2023-05-18T00:20:40.469Z,14.10
2023-05-18T00:23:10.822Z,14.10
2023-05-18T00:25:38.900Z,13.10
2023-05-18T00:28:07.032Z,15.50
2023-05-18T00:30:35.111Z,18.80
2023-05-18T00:33:03.204Z,26.40
2023-05-18T00:35:31.670Z,8.30
2023-05-18T00:37:59.971Z,9.90
2023-05-18T00:40:29.434Z,6.60
2023-05-18T00:42:57.689Z,10.90
2023-05-18T00:45:26.848Z,13.90
2023-05-18T00:47:56.661Z,15.00
2023-05-18T00:50:25.196Z,10.80
2023-05-18T00:52:53.374Z,11.40
2023-05-18T00:55:22.391Z,9.60
2023-05-18T00:57:50.600Z,6.70
2023-05-18T01:00:20.823Z,12.00
2023-05-18T01:02:51.322Z,14.20
2023-05-18T01:05:22.351Z,19.10
2023-05-18T01:07:50.607Z,9.30
2023-05-18T01:10:20.329Z,7.30
2023-05-18T01:13:04.162Z,16.30
2023-05-18T01:15:39.692Z,9.20
2023-05-18T01:18:25.678Z,10.50
2023-05-18T01:21:00.660Z,12.50
2023-05-18T01:23:59.090Z,15.10
2023-05-18T01:26:37.657Z,12.20
2023-05-18T01:29:11.505Z,18.90
2023-05-18T01:31:40.202Z,6.40
2023-05-18T01:34:08.713Z,15.40
2023-05-18T01:36:37.676Z,10.50
2023-05-18T01:39:05.833Z,11.60
2023-05-18T01:41:39.409Z,7.20
2023-05-18T01:44:19.324Z,11.00
2023-05-18T01:47:12.561Z,9.10
2023-05-18T01:49:52.198Z,8.70
2023-05-18T01:52:43.548Z,6.40
2023-05-18T01:55:14.566Z,9.50
2023-05-18T01:57:45.129Z,8.40
2023-05-18T02:00:19.449Z,11.70
2023-05-18T02:02:50.699Z,12.00
2023-05-18T02:05:19.834Z,11.70
2023-05-18T02:07:49.576Z,9.50
2023-05-18T02:10:17.995Z,8.60
2023-05-18T02:12:49.278Z,9.10
2023-05-18T02:15:18.071Z,7.90
2023-05-18T02:17:46.608Z,9.80
2023-05-18T02:20:18.581Z,11.30
2023-05-18T02:22:46.897Z,10.80
2023-05-18T02:25:15.099Z,9.90
2023-05-18T02:27:43.329Z,10.00
2023-05-18T02:30:14.430Z,9.50
2023-05-18T02:32:47.205Z,14.00
2023-05-18T02:35:17.622Z,10.50
2023-05-18T02:37:47.548Z,9.30
2023-05-18T02:40:19.128Z,11.60
2023-05-18T02:42:47.165Z,13.20
2023-05-18T02:45:16.088Z,7.70
2023-05-18T02:47:44.911Z,6.90
2023-05-18T02:50:13.184Z,13.20
2023-05-18T02:52:41.882Z,8.60
2023-05-18T02:55:10.958Z,9.10
2023-05-18T02:57:57.066Z,13.90
2023-05-18T03:00:32.060Z,14.10
2023-05-18T03:03:01.050Z,15.70
2023-05-18T03:05:29.885Z,14.50
2023-05-18T03:07:58.461Z,9.90
2023-05-18T03:10:26.601Z,8.30
2023-05-18T03:12:54.680Z,12.50
2023-05-18T03:15:23.401Z,10.30
2023-05-18T03:17:51.958Z,9.60
2023-05-18T03:20:21.860Z,14.30
2023-05-18T03:22:50.072Z,13.60
2023-05-18T03:25:19.552Z,10.20
2023-05-18T03:27:48.360Z,17.60
2023-05-18T03:30:16.588Z,8.50
2023-05-18T03:32:47.782Z,11.20
2023-05-18T03:35:16.401Z,8.50
2023-05-18T03:37:45.724Z,8.90
2023-05-18T03:40:15.684Z,10.80
2023-05-18T03:42:44.636Z,13.90
2023-05-18T03:45:13.802Z,8.50
2023-05-18T03:47:42.798Z,17.80
2023-05-18T03:50:11.188Z,10.90
2023-05-18T03:52:40.169Z,13.80
2023-05-18T03:55:09.014Z,10.50
2023-05-18T03:57:37.402Z,13.50
2023-05-18T04:04:54.047Z,8.60
2023-05-18T04:07:22.570Z,10.80
2023-05-18T04:09:52.224Z,11.00
2023-05-18T04:12:21.594Z,10.30
2023-05-18T04:14:50.110Z,10.80
2023-05-18T04:17:22.386Z,15.60
2023-05-18T04:19:50.814Z,11.80
2023-05-18T04:22:18.852Z,14.90
2023-05-18T04:24:47.660Z,9.30
2023-05-18T04:27:15.902Z,15.10
2023-05-18T04:29:44.312Z,10.60
2023-05-18T04:34:37.972Z,14.60
2023-05-18T04:37:06.909Z,12.00
2023-05-18T04:39:35.289Z,12.60
2023-05-18T04:42:08.609Z,9.30
2023-05-18T04:44:38.593Z,12.30
2023-05-18T04:47:08.651Z,7.40
2023-05-18T04:49:38.694Z,13.30
2023-05-18T04:52:09.101Z,12.30
2023-05-18T04:54:41.089Z,14.50
2023-05-18T04:57:09.558Z,12.20
2023-05-18T04:59:37.578Z,12.80
2023-05-18T05:02:06.384Z,8.70
2023-05-18T05:04:34.754Z,9.10
2023-05-18T05:07:04.071Z,14.30
2023-05-18T05:09:32.299Z,9.00
2023-05-18T05:12:00.421Z,6.90
2023-05-18T05:14:28.414Z,9.10
2023-05-18T05:16:56.384Z,10.90
2023-05-18T05:19:24.717Z,8.90
2023-05-18T05:21:53.083Z,7.50
2023-05-18T05:24:21.421Z,12.00
2023-05-18T05:26:49.700Z,8.70
2023-05-18T05:29:20.020Z,9.80
2023-05-18T05:31:48.310Z,13.80
2023-05-18T05:34:16.639Z,14.20
2023-05-18T05:36:44.673Z,13.40
2023-05-18T05:39:13.667Z,8.80
2023-05-18T05:41:41.928Z,5.90
2023-05-18T05:44:10.070Z,10.10
2023-05-18T05:46:38.244Z,8.30
2023-05-18T05:49:06.731Z,9.50
2023-05-18T05:51:35.875Z,7.70
2023-05-18T05:54:04.345Z,8.60
2023-05-18T05:56:32.561Z,10.80
2023-05-18T05:59:01.042Z,7.70
2023-05-18T06:01:29.647Z,9.50
2023-05-18T06:03:58.162Z,11.10
2023-05-18T06:06:26.144Z,8.30
2023-05-18T06:08:54.209Z,3.60
2023-05-18T06:11:22.857Z,12.40
2023-05-18T06:13:52.462Z,8.80
2023-05-18T06:16:20.683Z,9.50
2023-05-18T06:18:49.196Z,5.10
2023-05-18T06:21:17.615Z,8.40
2023-05-18T06:23:46.377Z,10.00
2023-05-18T06:26:53.803Z,13.10
2023-05-18T06:29:50.928Z,8.50
2023-05-18T06:32:37.560Z,7.00
2023-05-18T06:35:07.386Z,4.90
2023-05-18T06:37:36.910Z,7.80
2023-05-18T06:40:07.373Z,7.50
2023-05-18T06:42:35.617Z,10.20
2023-05-18T06:45:23.334Z,5.70
2023-05-18T06:47:54.661Z,6.00
2023-05-18T06:50:23.179Z,5.30
2023-05-18T06:52:51.614Z,5.80
2023-05-18T06:55:20.344Z,6.60
2023-05-18T06:57:48.492Z,5.50
2023-05-18T07:00:17.209Z,7.90
2023-05-18T07:02:45.909Z,9.30
2023-05-18T07:05:15.114Z,6.70
2023-05-18T07:07:43.267Z,8.50
2023-05-18T07:10:11.667Z,7.80
2023-05-18T07:12:39.917Z,2.50
2023-05-18T07:15:08.238Z,3.40
2023-05-18T07:17:36.561Z,6.80
2023-05-18T07:20:09.021Z,4.60
2023-05-18T07:22:37.051Z,6.80
2023-05-18T07:25:05.723Z,5.00
2023-05-18T07:27:34.838Z,4.10
2023-05-18T07:30:03.056Z,3.20
2023-05-18T07:32:31.120Z,4.40
2023-05-18T07:34:59.515Z,3.70
2023-05-18T07:37:27.439Z,4.20
2023-05-18T07:39:55.582Z,1.90
2023-05-18T07:42:23.669Z,2.00
2023-05-18T07:44:52.339Z,6.40
2023-05-18T07:47:21.834Z,8.20
2023-05-18T07:49:49.938Z,2.70
2023-05-18T07:52:18.031Z,7.60
2023-05-18T07:54:46.058Z,4.00
2023-05-18T07:57:14.513Z,2.20
2023-05-18T07:59:42.867Z,1.00
2023-05-18T08:02:11.354Z,2.70
2023-05-18T08:04:39.572Z,2.50
2023-05-18T08:07:09.144Z,5.40
2023-05-18T08:09:37.412Z,3.00
2023-05-18T08:12:06.301Z,4.90
2023-05-18T08:14:34.334Z,1.30
2023-05-18T08:17:04.920Z,3.40
2023-05-18T08:19:33.063Z,6.60
2023-05-18T08:22:01.169Z,3.70
2023-05-18T08:24:29.184Z,2.80
2023-05-18T08:26:57.585Z,2.50
2023-05-18T08:29:25.827Z,2.80
2023-05-18T08:31:54.009Z,1.60
2023-05-18T08:34:22.710Z,2.60
2023-05-18T08:36:50.806Z,3.10
2023-05-18T08:39:19.415Z,1.80
2023-05-18T08:42:03.934Z,3.60
2023-05-18T08:44:41.116Z,1.80
2023-05-18T08:47:11.519Z,2.50
2023-05-18T08:49:42.383Z,4.40
2023-05-18T08:52:18.005Z,6.60
2023-05-18T08:54:48.730Z,2.90
2023-05-18T08:57:18.510Z,5.80
2023-05-18T08:59:49.433Z,4.60
2023-05-18T09:02:18.633Z,2.80
2023-05-18T09:04:48.322Z,1.50
2023-05-18T09:07:18.416Z,3.20
2023-05-18T09:09:47.779Z,2.80
2023-05-18T09:12:20.181Z,2.60
2023-05-18T09:14:49.250Z,7.10
2023-05-18T09:17:17.385Z,6.30
2023-05-18T09:19:46.288Z,1.90
2023-05-18T09:22:15.332Z,5.00
2023-05-18T09:24:43.985Z,2.20
2023-05-18T09:27:12.197Z,1.90
2023-05-18T09:29:54.350Z,5.70
2023-05-18T09:34:51.430Z,6.60
2023-05-18T09:37:21.421Z,2.10
2023-05-18T09:40:04.844Z,4.80
2023-05-18T09:42:39.846Z,1.90
2023-05-18T09:45:24.268Z,5.20
2023-05-18T09:47:53.714Z,1.70
2023-05-18T09:50:22.754Z,7.70
2023-05-18T09:52:50.938Z,5.20
2023-05-18T09:55:20.531Z,6.40
2023-05-18T09:57:50.763Z,11.50
2023-05-18T10:00:20.716Z,2.90
2023-05-18T10:02:52.963Z,1.50
2023-05-18T10:05:35.538Z,3.50
2023-05-18T10:08:04.336Z,9.90
2023-05-18T10:10:32.649Z,2.00
2023-05-18T10:13:01.641Z,6.50
2023-05-18T10:15:30.199Z,1.20
2023-05-18T10:18:01.313Z,2.70
2023-05-18T10:20:29.767Z,2.70
2023-05-18T10:23:00.943Z,5.60
2023-05-18T10:25:31.003Z,2.60
2023-05-18T10:28:06.398Z,4.20
2023-05-18T10:30:35.366Z,4.70
2023-05-18T10:33:11.268Z,3.60
2023-05-18T10:35:45.574Z,3.40
2023-05-18T10:38:15.196Z,5.60
2023-05-18T10:40:45.102Z,4.30
2023-05-18T10:43:14.769Z,2.70
2023-05-18T10:45:47.310Z,1.80
2023-05-18T10:48:16.432Z,2.70
2023-05-18T10:50:44.603Z,5.40
2023-05-18T10:53:13.086Z,5.80
2023-05-18T10:55:41.186Z,2.60
2023-05-18T10:58:14.336Z,4.50
2023-05-18T11:04:40.838Z,2.40
2023-05-18T11:07:13.675Z,2.60
2023-05-18T11:09:43.127Z,3.10
2023-05-18T11:12:13.200Z,2.40
2023-05-18T11:14:53.005Z,2.60
2023-05-18T11:17:26.786Z,3.20
2023-05-18T11:20:08.014Z,2.30
2023-05-18T11:22:59.190Z,1.20
2023-05-18T11:25:27.226Z,3.60
2023-05-18T11:28:02.348Z,2.30
2023-05-18T11:30:45.164Z,3.20
2023-05-18T11:33:16.064Z,1.90
2023-05-18T11:36:01.071Z,2.60
2023-05-18T11:38:55.291Z,2.30
2023-05-18T11:41:35.775Z,4.80
2023-05-18T11:44:14.898Z,2.80
2023-05-18T11:46:53.550Z,4.60
2023-05-18T11:49:25.072Z,3.00
2023-05-18T11:52:02.709Z,4.10
2023-05-18T11:54:44.077Z,4.10
2023-05-18T11:57:15.280Z,5.00
2023-05-18T11:59:45.799Z,7.00
2023-05-18T12:02:21.718Z,4.90
2023-05-18T12:04:53.170Z,3.80
2023-05-18T12:07:22.694Z,5.40
2023-05-18T12:09:51.283Z,1.00
2023-05-18T12:12:20.410Z,9.50
2023-05-18T12:14:55.658Z,2.00
2023-05-18T12:17:24.721Z,1.50
2023-05-18T12:19:53.302Z,4.50
2023-05-18T12:22:21.505Z,1.90
2023-05-18T12:24:51.547Z,1.50
2023-05-18T12:27:23.030Z,7.10
2023-05-18T12:29:51.424Z,2.50
2023-05-18T12:32:19.539Z,2.20
2023-05-18T12:34:47.522Z,0.30
2023-05-18T12:37:15.861Z,1.40
2023-05-18T12:39:44.028Z,0.90
2023-05-18T12:42:14.427Z,2.70
2023-05-18T12:44:44.864Z,4.00
2023-05-18T12:47:14.113Z,3.20
2023-05-18T12:49:47.867Z,3.70
2023-05-18T12:52:16.814Z,2.20
2023-05-18T12:54:58.507Z,1.10
2023-05-18T12:57:31.266Z,3.90
2023-05-18T13:00:01.048Z,5.90
2023-05-18T13:02:51.788Z,2.90
2023-05-18T13:05:24.405Z,0.80
2023-05-18T13:07:56.094Z,0.70
2023-05-18T13:10:24.326Z,2.00
2023-05-18T13:12:52.804Z,1.30
2023-05-18T13:18:15.290Z,1.50
2023-05-18T13:20:50.854Z,2.90
2023-05-18T13:23:24.932Z,19.70
2023-05-18T13:25:53.090Z,3.50
2023-05-18T13:28:21.982Z,2.90
2023-05-18T13:30:50.677Z,0.70
2023-05-18T13:33:19.617Z,3.30
2023-05-18T13:35:49.849Z,3.40
2023-05-18T13:38:18.083Z,2.10
2023-05-18T13:40:47.013Z,2.00
2023-05-18T13:43:15.111Z,4.80
2023-05-18T13:45:43.662Z,5.10
2023-05-18T13:48:11.839Z,2.60
2023-05-18T13:50:40.163Z,4.80
2023-05-18T13:53:08.654Z,1.60
2023-05-18T13:55:37.508Z,3.40
2023-05-18T13:58:06.480Z,5.20
2023-05-18T14:00:34.950Z,3.20
2023-05-18T14:03:03.223Z,3.10
2023-05-18T14:05:31.375Z,3.40
2023-05-18T14:07:59.567Z,6.20
2023-05-18T14:10:27.610Z,3.70
2023-05-18T14:12:55.777Z,0.70
2023-05-18T14:15:24.017Z,2.40
2023-05-18T14:17:52.153Z,4.40
2023-05-18T14:20:20.292Z,4.20
2023-05-18T14:22:48.444Z,4.20
2023-05-18T14:25:17.053Z,3.50
2023-05-18T14:27:45.766Z,0.80
2023-05-18T14:30:14.298Z,0.90
2023-05-18T14:32:42.373Z,1.80
2023-05-18T14:35:10.541Z,3.50
2023-05-18T14:37:38.759Z,5.90
2023-05-18T14:40:07.877Z,3.80
2023-05-18T14:42:37.417Z,1.50
2023-05-18T14:45:06.067Z,5.80
2023-05-18T14:47:34.289Z,8.80
2023-05-18T14:50:02.632Z,2.00
2023-05-18T14:52:30.681Z,10.90
2023-05-18T14:54:58.752Z,1.90
2023-05-18T14:57:27.132Z,4.00
2023-05-18T14:59:55.196Z,2.00
2023-05-18T15:02:23.235Z,2.20
2023-05-18T15:04:51.360Z,2.70
2023-05-18T15:07:20.282Z,4.00
2023-05-18T15:09:48.492Z,4.00
2023-05-18T15:12:17.849Z,3.10
2023-05-18T15:14:45.901Z,5.40
2023-05-18T15:17:15.252Z,3.10
2023-05-18T15:20:09.523Z,2.30
2023-05-18T15:22:38.495Z,4.40
2023-05-18T15:25:07.613Z,3.70
2023-05-18T15:27:36.955Z,2.70
2023-05-18T15:30:11.558Z,3.90
2023-05-18T15:32:45.746Z,5.00
2023-05-18T15:35:16.201Z,3.20
2023-05-18T15:37:44.504Z,7.20
2023-05-18T15:40:12.557Z,3.80
2023-05-18T15:42:40.618Z,4.90
2023-05-18T15:45:09.207Z,1.40
2023-05-18T15:47:37.276Z,2.90
2023-05-18T15:50:06.477Z,2.30
2023-05-18T15:52:34.813Z,2.70
2023-05-18T15:55:02.860Z,3.60
2023-05-18T15:57:32.353Z,2.90
2023-05-18T16:00:00.440Z,2.10
2023-05-18T16:02:30.585Z,2.70
2023-05-18T16:04:59.632Z,1.00
2023-05-18T16:07:27.739Z,2.00
2023-05-18T16:09:56.075Z,1.70
2023-05-18T16:12:24.165Z,1.80
2023-05-18T16:14:52.182Z,1.10
2023-05-18T16:17:20.365Z,2.90
2023-05-18T16:19:48.436Z,5.20
2023-05-18T16:22:16.697Z,1.50
2023-05-18T16:24:45.133Z,2.30
2023-05-18T16:27:13.284Z,4.70
2023-05-18T16:29:43.213Z,3.20
2023-05-18T16:32:11.620Z,5.20
2023-05-18T16:34:39.676Z,1.20
2023-05-18T16:37:08.942Z,1.90
2023-05-18T16:39:37.124Z,2.40
2023-05-18T16:42:05.758Z,3.00
2023-05-18T16:44:35.839Z,6.70
2023-05-18T16:47:03.875Z,3.50
2023-05-18T16:49:32.934Z,1.50
2023-05-18T16:52:01.336Z,3.60
2023-05-18T16:54:29.361Z,1.00
2023-05-18T16:56:57.368Z,1.90
2023-05-18T16:59:25.656Z,0.80
2023-05-18T17:01:53.695Z,3.30
2023-05-18T17:04:21.857Z,2.30
2023-05-18T17:06:49.899Z,6.70
2023-05-18T17:09:20.568Z,7.40
2023-05-18T17:11:48.903Z,3.80
2023-05-18T17:14:18.562Z,3.20
2023-05-18T17:16:47.308Z,2.60
2023-05-18T17:19:15.336Z,1.40
2023-05-18T17:21:43.328Z,2.70
2023-05-18T17:24:11.302Z,4.70
2023-05-18T17:26:39.305Z,3.70
2023-05-18T17:29:07.450Z,1.30
2023-05-18T17:31:35.657Z,1.60
2023-05-18T17:34:03.822Z,8.50
2023-05-18T17:36:31.778Z,4.30
2023-05-18T17:38:59.761Z,2.70
2023-05-18T17:41:27.728Z,4.30
2023-05-18T17:43:55.757Z,2.10
2023-05-18T17:46:23.799Z,6.00
2023-05-18T17:49:17.335Z,2.20
2023-05-18T17:51:49.336Z,6.00
2023-05-18T17:54:17.344Z,4.80
2023-05-18T17:56:45.570Z,3.10
2023-05-18T17:59:13.622Z,4.90
2023-05-18T18:01:43.255Z,5.60
2023-05-18T18:04:11.386Z,1.90
2023-05-18T18:06:39.525Z,6.80
2023-05-18T18:09:07.674Z,4.10
2023-05-18T18:11:35.973Z,4.00
2023-05-18T18:14:04.142Z,15.00
2023-05-18T18:16:32.325Z,8.30
2023-05-18T18:19:00.623Z,3.20
2023-05-18T18:21:28.613Z,10.40
2023-05-18T18:23:56.692Z,11.00
2023-05-18T18:26:24.905Z,7.70
2023-05-18T18:28:53.018Z,6.90
2023-05-18T18:31:21.187Z,10.60
2023-05-18T18:33:52.037Z,10.50
2023-05-18T18:36:20.889Z,11.00
2023-05-18T18:38:48.918Z,15.40
2023-05-18T18:41:20.082Z,10.30
2023-05-18T18:43:47.982Z,14.60
2023-05-18T18:46:16.118Z,9.90
2023-05-18T18:48:47.660Z,9.10
2023-05-18T18:51:15.711Z,8.50
2023-05-18T18:53:43.718Z,7.00
2023-05-18T18:56:11.835Z,8.00
2023-05-18T18:58:39.936Z,9.20
2023-05-18T19:04:38.302Z,8.80
2023-05-18T19:07:06.327Z,8.00
2023-05-18T19:09:36.243Z,8.40
2023-05-18T19:12:04.824Z,10.20
2023-05-18T19:14:33.000Z,9.90
2023-05-18T19:17:01.078Z,10.70
2023-05-18T19:19:32.540Z,6.30
2023-05-18T19:22:00.805Z,8.60
2023-05-18T19:24:29.134Z,9.50
2023-05-18T19:26:57.273Z,8.20
2023-05-18T19:29:25.532Z,7.60
2023-05-18T19:31:55.288Z,11.00
2023-05-18T19:34:24.304Z,7.20
2023-05-18T19:36:52.696Z,7.90
2023-05-18T19:39:20.997Z,8.00
2023-05-18T19:41:49.080Z,8.60
2023-05-18T19:44:17.174Z,5.00
2023-05-18T19:46:45.544Z,5.50
2023-05-18T19:49:13.575Z,7.10
2023-05-18T19:51:41.532Z,8.60
2023-05-18T19:54:09.571Z,9.90
2023-05-18T19:56:37.550Z,9.40
2023-05-18T19:59:05.725Z,6.20
2023-05-18T20:01:35.251Z,6.10
2023-05-18T20:04:04.012Z,7.80
2023-05-18T20:06:33.910Z,5.30
2023-05-18T20:09:01.895Z,10.40
2023-05-18T20:11:56.250Z,8.60
2023-05-18T20:14:24.399Z,9.00
2023-05-18T20:16:52.859Z,5.60
2023-05-18T20:19:22.232Z,7.80
2023-05-18T20:21:51.185Z,6.50
2023-05-18T20:24:19.179Z,6.60
2023-05-18T20:26:47.236Z,5.80
2023-05-18T20:29:15.416Z,8.50
2023-05-18T20:31:43.324Z,11.00
2023-05-18T20:34:11.463Z,7.70
2023-05-18T20:36:39.365Z,7.00
2023-05-18T20:39:07.501Z,10.40
2023-05-18T20:41:40.022Z,10.70
2023-05-18T20:44:11.642Z,11.30
2023-05-18T20:46:42.540Z,10.50
2023-05-18T20:49:12.998Z,11.60
2023-05-18T20:51:41.052Z,17.50
2023-05-18T20:54:08.969Z,9.40
2023-05-18T20:56:37.076Z,11.80
2023-05-18T20:59:06.481Z,13.40
2023-05-18T21:01:39.310Z,12.40
2023-05-18T21:04:09.692Z,14.80
2023-05-18T21:06:41.000Z,11.40
2023-05-18T21:09:09.494Z,14.20
2023-05-18T21:11:37.614Z,10.90
2023-05-18T21:14:05.720Z,12.40
2023-05-18T21:16:34.382Z,13.90
2023-05-18T21:19:02.566Z,10.80
2023-05-18T21:21:31.881Z,11.60
2023-05-18T21:23:59.910Z,12.40
2023-05-18T21:26:28.294Z,12.20
2023-05-18T21:28:56.265Z,11.30
2023-05-18T21:31:25.149Z,12.30
2023-05-18T21:33:53.237Z,17.10
2023-05-18T21:36:34.438Z,12.70
2023-05-18T21:39:04.685Z,13.00
2023-05-18T21:41:35.375Z,13.80
2023-05-18T21:44:03.473Z,15.70
2023-05-18T21:46:31.637Z,17.20
2023-05-18T21:49:01.676Z,14.60
2023-05-18T21:51:31.998Z,11.50
2023-05-18T21:54:01.444Z,15.50
2023-05-18T21:56:29.995Z,13.80
2023-05-18T21:58:57.988Z,16.00
2023-05-18T22:01:26.441Z,14.20
2023-05-18T22:03:54.405Z,17.00
2023-05-18T22:06:22.810Z,13.50
2023-05-18T22:08:51.564Z,14.10
2023-05-18T22:11:20.216Z,16.90
2023-05-18T22:13:48.233Z,16.70
2023-05-18T22:16:16.382Z,15.90
2023-05-18T22:18:44.360Z,12.60
2023-05-18T22:21:12.342Z,14.30
2023-05-18T22:23:40.485Z,14.50
2023-05-18T22:26:08.445Z,13.00
2023-05-18T22:28:36.497Z,14.70
2023-05-18T22:31:04.737Z,13.40
2023-05-18T22:33:32.670Z,11.10
2023-05-18T22:36:01.048Z,12.60
2023-05-18T22:38:28.999Z,13.00
2023-05-18T22:40:57.064Z,12.10
2023-05-18T22:43:26.085Z,13.50
2023-05-18T22:45:54.110Z,16.60
2023-05-18T22:48:22.237Z,12.00
2023-05-18T22:50:50.438Z,14.00
2023-05-18T22:53:18.698Z,9.90
2023-05-18T22:55:47.146Z,8.30
2023-05-18T22:58:15.201Z,9.90
2023-05-18T23:00:43.143Z,13.80
2023-05-18T23:03:11.173Z,11.00
2023-05-18T23:05:41.319Z,7.00
2023-05-18T23:08:10.279Z,5.50
2023-05-18T23:10:38.352Z,6.00
2023-05-18T23:13:06.460Z,3.80
2023-05-18T23:15:34.433Z,5.90
2023-05-18T23:18:02.790Z,5.70
2023-05-18T23:20:34.574Z,4.30
2023-05-18T23:23:02.569Z,4.10
2023-05-18T23:25:30.804Z,4.40
2023-05-18T23:27:58.871Z,5.30
2023-05-18T23:30:27.125Z,7.00
2023-05-18T23:32:56.720Z,3.90
2023-05-18T23:35:25.496Z,7.80
2023-05-18T23:37:55.915Z,5.00
2023-05-18T23:40:24.886Z,4.90
2023-05-18T23:42:53.092Z,3.80
2023-05-18T23:45:22.086Z,4.00
2023-05-18T23:47:50.343Z,4.40
2023-05-18T23:50:18.701Z,3.50
2023-05-18T23:52:47.251Z,3.70
2023-05-18T23:55:15.628Z,3.90
2023-05-18T23:57:43.767Z,6.70
